Time;durP1;ratioP1;P1;durP2;ratioP2;P2;SDS_P1;SDS_P2;PMS_P1;PMS_P2;Temp;Humidity;BMP_temperature;BMP_pressure;BME280_temperature;BME280_humidity;BME280_pressure;Samples;Min_cycle;Max_cycle;Signal;HPM_P1;HPM_P2
2022/01/01 00:02:17;;;;;;;369.08;217.13;;;;;;;;;;5019617;28;20046;-94
2022/01/01 00:04:43;;;;;;;324.38;190.25;;;;;;;;;;5019825;28;20030;-93
2022/01/01 00:07:12;;;;;;;329.60;198.05;;;;;;;;;;5020728;28;20030;-94
2022/01/01 00:09:38;;;;;;;307.58;183.43;;;;;;;;;;5020648;28;20102;-94
2022/01/01 00:12:05;;;;;;;296.48;174.38;;;;;;;;;;5020641;28;20022;-93
2022/01/01 00:14:31;;;;;;;241.88;131.40;;;;;;;;;;5020256;28;20057;-94
2022/01/01 00:16:57;;;;;;;220.80;129.40;;;;;;;;;;5020296;28;20026;-93
2022/01/01 00:19:24;;;;;;;190.95;112.15;;;;;;;;;;5020180;28;20424;-93
2022/01/01 00:21:50;;;;;;;210.75;111.95;;;;;;;;;;5020276;28;20124;-94
2022/01/01 00:24:16;;;;;;;194.93;104.35;;;;;;;;;;5019275;28;20030;-94
2022/01/01 00:26:42;;;;;;;182.10;99.07;;;;;;;;;;5020386;28;20052;-95
2022/01/01 00:29:08;;;;;;;145.98;82.25;;;;;;;;;;5020368;28;20058;-94
2022/01/01 00:31:34;;;;;;;123.50;75.25;;;;;;;;;;5020108;28;20424;-94
2022/01/01 00:34:00;;;;;;;106.38;67.18;;;;;;;;;;5020180;28;20402;-94
2022/01/01 00:36:27;;;;;;;102.07;65.20;;;;;;;;;;5019750;28;20091;-93
2022/01/01 00:38:53;;;;;;;105.72;67.80;;;;;;;;;;5019962;28;20032;-93
2022/01/01 00:41:19;;;;;;;94.97;65.80;;;;;;;;;;5020163;28;20072;-94
2022/01/01 00:43:45;;;;;;;99.82;65.80;;;;;;;;;;5019055;28;20051;-94
2022/01/01 00:46:11;;;;;;;101.68;65.53;;;;;;;;;;5019836;28;20018;-93
2022/01/01 00:48:38;;;;;;;102.68;65.57;;;;;;;;;;5019497;28;20033;-93
2022/01/01 00:51:04;;;;;;;140.38;80.13;;;;;;;;;;5019555;28;20053;-93
2022/01/01 00:53:30;;;;;;;141.63;79.57;;;;;;;;;;5019724;28;20064;-94
2022/01/01 00:55:57;;;;;;;141.82;82.63;;;;;;;;;;5018705;28;20474;-94
2022/01/01 00:58:23;;;;;;;172.43;89.50;;;;;;;;;;5019660;28;20062;-93
2022/01/01 01:00:49;;;;;;;159.70;88.15;;;;;;;;;;5018642;28;20104;-94
2022/01/01 01:03:16;;;;;;;143.13;80.40;;;;;;;;;;5018638;28;20065;-93
2022/01/01 01:05:43;;;;;;;135.95;76.13;;;;;;;;;;5019479;28;20054;-94
2022/01/01 01:08:10;;;;;;;134.35;76.18;;;;;;;;;;5019441;28;20100;-93
2022/01/01 01:10:37;;;;;;;148.60;82.75;;;;;;;;;;5019550;28;20030;-93
2022/01/01 01:13:03;;;;;;;169.38;95.70;;;;;;;;;;5019295;28;20026;-93
2022/01/01 01:15:30;;;;;;;156.50;92.03;;;;;;;;;;5019563;28;20081;-94
2022/01/01 01:17:57;;;;;;;165.90;95.95;;;;;;;;;;5019189;28;20068;-93
2022/01/01 01:20:24;;;;;;;165.77;99.22;;;;;;;;;;5019211;28;20026;-93
2022/01/01 01:22:50;;;;;;;149.88;90.15;;;;;;;;;;5018159;28;20069;-94
2022/01/01 01:25:16;;;;;;;140.40;85.95;;;;;;;;;;5018083;28;20068;-93
2022/01/01 01:27:42;;;;;;;158.63;92.45;;;;;;;;;;5019070;28;20412;-93
2022/01/01 01:30:10;;;;;;;225.23;122.55;;;;;;;;;;5019350;28;20026;-95
2022/01/01 01:32:37;;;;;;;156.50;97.18;;;;;;;;;;5019608;28;20022;-94
2022/01/01 01:35:03;;;;;;;184.48;108.78;;;;;;;;;;5018920;28;20136;-93
2022/01/01 01:37:30;;;;;;;187.35;109.68;;;;;;;;;;5018821;28;20118;-95
2022/01/01 01:39:56;;;;;;;183.05;107.65;;;;;;;;;;5019053;28;20324;-94
2022/01/01 01:42:25;;;;;;;166.40;98.40;;;;;;;;;;5017802;28;20416;-93
2022/01/01 01:44:53;;;;;;;144.45;87.22;;;;;;;;;;5017693;28;20038;-93
2022/01/01 01:47:27;;;;;;;136.43;85.00;;;;;;;;;;5018692;28;20072;-94
2022/01/01 01:49:54;;;;;;;119.68;75.55;;;;;;;;;;5018719;28;20412;-95
2022/01/01 01:52:20;;;;;;;125.78;76.32;;;;;;;;;;5018619;28;20046;-94
2022/01/01 01:54:47;;;;;;;128.38;81.07;;;;;;;;;;5018831;28;20022;-94
2022/01/01 01:57:13;;;;;;;128.48;80.53;;;;;;;;;;5017674;28;20045;-93
2022/01/01 01:59:40;;;;;;;129.52;82.13;;;;;;;;;;5017932;28;20404;-94
2022/01/01 02:02:08;;;;;;;131.50;81.10;;;;;;;;;;5018413;28;20022;-93
2022/01/01 02:04:34;;;;;;;123.35;80.70;;;;;;;;;;5017537;28;20022;-94
2022/01/01 02:07:01;;;;;;;116.28;74.00;;;;;;;;;;5017515;28;20034;-94
2022/01/01 02:09:27;;;;;;;109.65;72.00;;;;;;;;;;5018471;28;20022;-94
2022/01/01 02:11:54;;;;;;;120.07;75.20;;;;;;;;;;5017461;28;20049;-93
2022/01/01 02:14:50;;;;;;;122.10;76.47;;;;;;;;;;5018591;28;20427;-95
2022/01/01 02:17:17;;;;;;;123.03;78.07;;;;;;;;;;5017368;28;20062;-94
2022/01/01 02:19:59;;;;;;;121.57;79.80;;;;;;;;;;5018112;28;20029;-93
2022/01/01 02:22:26;;;;;;;148.38;95.25;;;;;;;;;;5018160;28;20033;-95
2022/01/01 02:24:53;;;;;;;139.57;88.68;;;;;;;;;;5018104;28;20050;-94
2022/01/01 02:27:19;;;;;;;125.03;82.45;;;;;;;;;;5017337;28;20029;-93
2022/01/01 02:29:46;;;;;;;126.00;79.38;;;;;;;;;;5018073;28;20048;-93
2022/01/01 02:32:13;;;;;;;123.63;78.30;;;;;;;;;;5018238;28;20050;-95
2022/01/01 02:34:40;;;;;;;119.55;79.80;;;;;;;;;;5018117;28;20029;-94
2022/01/01 02:37:06;;;;;;;124.45;79.80;;;;;;;;;;5018030;28;20058;-94
2022/01/01 02:39:32;;;;;;;121.15;78.03;;;;;;;;;;5016988;28;20026;-94
2022/01/01 02:41:58;;;;;;;127.45;81.47;;;;;;;;;;5017974;28;20022;-93
2022/01/01 02:44:26;;;;;;;137.88;89.15;;;;;;;;;;5016843;28;20036;-94
2022/01/01 02:46:53;;;;;;;123.68;83.28;;;;;;;;;;5017845;28;20048;-94
2022/01/01 02:49:19;;;;;;;129.52;83.90;;;;;;;;;;5017750;28;20037;-93
2022/01/01 02:51:45;;;;;;;126.90;82.63;;;;;;;;;;5017070;28;20037;-94
2022/01/01 02:54:11;;;;;;;120.47;81.32;;;;;;;;;;5018157;28;20029;-95
2022/01/01 02:56:37;;;;;;;127.03;83.30;;;;;;;;;;5017796;28;20030;-94
2022/01/01 02:59:04;;;;;;;127.78;83.15;;;;;;;;;;5017678;28;20026;-94
2022/01/01 03:01:30;;;;;;;129.73;81.65;;;;;;;;;;5016747;28;20029;-93
2022/01/01 03:03:56;;;;;;;118.97;77.53;;;;;;;;;;5017815;28;20026;-93
2022/01/01 03:06:22;;;;;;;119.82;78.10;;;;;;;;;;5016863;28;20026;-93
2022/01/01 03:08:51;;;;;;;111.45;74.20;;;;;;;;;;5016483;28;20049;-94
2022/01/01 03:11:17;;;;;;;108.13;72.38;;;;;;;;;;5019292;28;20026;-93
2022/01/01 03:13:44;;;;;;;113.30;75.57;;;;;;;;;;5021774;28;20033;-93
2022/01/01 03:16:10;;;;;;;116.40;76.10;;;;;;;;;;5021511;28;20033;-94
2022/01/01 03:18:37;;;;;;;119.80;79.10;;;;;;;;;;5020393;28;20033;-94
2022/01/01 03:21:03;;;;;;;119.47;78.22;;;;;;;;;;5021673;28;20093;-94
2022/01/01 03:23:29;;;;;;;121.95;76.72;;;;;;;;;;5021458;28;20021;-93
2022/01/01 03:25:55;;;;;;;122.78;77.95;;;;;;;;;;5021260;28;20408;-94
2022/01/01 03:28:21;;;;;;;118.35;75.20;;;;;;;;;;5020344;28;20034;-93
2022/01/01 03:30:47;;;;;;;117.13;76.00;;;;;;;;;;5020213;28;20025;-93
2022/01/01 03:33:13;;;;;;;128.02;83.88;;;;;;;;;;5021317;28;20037;-93
2022/01/01 03:35:39;;;;;;;123.90;80.93;;;;;;;;;;5021371;28;20056;-94
2022/01/01 03:38:05;;;;;;;126.00;83.80;;;;;;;;;;5020342;28;20038;-93
2022/01/01 03:40:31;;;;;;;129.80;85.00;;;;;;;;;;5021118;28;20430;-93
2022/01/01 03:42:57;;;;;;;119.80;78.68;;;;;;;;;;5020183;28;20033;-94
2022/01/01 03:45:23;;;;;;;127.20;81.95;;;;;;;;;;5021161;28;20042;-93
2022/01/01 03:47:50;;;;;;;126.55;80.07;;;;;;;;;;5020993;28;20033;-94
2022/01/01 03:50:16;;;;;;;122.93;81.90;;;;;;;;;;5020930;28;20045;-94
2022/01/01 03:52:45;;;;;;;125.47;81.80;;;;;;;;;;5020890;28;20044;-95
2022/01/01 03:55:12;;;;;;;121.57;80.55;;;;;;;;;;5020968;28;20037;-93
2022/01/01 03:57:38;;;;;;;126.45;84.07;;;;;;;;;;5020019;28;20026;-93
2022/01/01 04:00:11;;;;;;;123.55;81.80;;;;;;;;;;5021016;28;20312;-94
2022/01/01 04:02:38;;;;;;;121.05;81.10;;;;;;;;;;5019761;28;20404;-94
2022/01/01 04:05:04;;;;;;;121.75;78.97;;;;;;;;;;5020946;28;20079;-94
2022/01/01 04:07:33;;;;;;;118.50;76.97;;;;;;;;;;5020897;28;20030;-92
2022/01/01 04:09:59;;;;;;;120.75;81.03;;;;;;;;;;5019627;28;20347;-94
2022/01/01 04:12:26;;;;;;;152.30;84.50;;;;;;;;;;5019633;28;20034;-95
2022/01/01 04:14:52;;;;;;;175.40;89.88;;;;;;;;;;5020635;28;20049;-94
2022/01/01 04:17:18;;;;;;;143.23;86.20;;;;;;;;;;5004183;28;20045;-93
2022/01/01 04:19:44;;;;;;;121.55;78.80;;;;;;;;;;5000976;28;20026;-91
2022/01/01 04:22:11;;;;;;;132.35;80.22;;;;;;;;;;4999433;28;20030;-92
2022/01/01 04:24:38;;;;;;;162.00;88.47;;;;;;;;;;5000637;28;20353;-93
2022/01/01 04:27:04;;;;;;;141.52;81.75;;;;;;;;;;5000049;28;20122;-91
2022/01/01 04:29:31;;;;;;;109.85;73.45;;;;;;;;;;5000049;28;20042;-90
2022/01/01 04:31:57;;;;;;;113.80;73.97;;;;;;;;;;5001655;28;20077;-91
2022/01/01 04:34:23;;;;;;;114.38;73.78;;;;;;;;;;5000320;28;20344;-93
2022/01/01 04:37:12;;;;;;;106.15;71.25;;;;;;;;;;5001044;28;20057;-92
2022/01/01 04:39:39;;;;;;;116.15;74.47;;;;;;;;;;5000340;28;20035;-93
2022/01/01 04:45:09;;;;;;;114.28;73.85;;;;;;;;;;4981171;28;20081;-92
2022/01/01 04:47:35;;;;;;;106.82;71.85;;;;;;;;;;4979915;28;20416;-92
2022/01/01 04:50:03;;;;;;;110.70;72.95;;;;;;;;;;4981029;28;20034;-91
2022/01/01 04:52:29;;;;;;;100.88;67.15;;;;;;;;;;4981330;28;20054;-92
2022/01/01 04:54:55;;;;;;;106.53;72.55;;;;;;;;;;5000442;28;20031;-92
2022/01/01 04:57:58;;;;;;;113.53;74.15;;;;;;;;;;5000190;28;20037;-92
2022/01/01 05:00:24;;;;;;;105.53;68.68;;;;;;;;;;4999722;28;20053;-92
2022/01/01 05:02:51;;;;;;;111.22;68.97;;;;;;;;;;4999649;28;20045;-92
2022/01/01 05:05:17;;;;;;;108.72;67.20;;;;;;;;;;4999146;28;20030;-92
2022/01/01 05:07:43;;;;;;;106.28;67.25;;;;;;;;;;5000174;28;20322;-93
2022/01/01 05:10:43;;;;;;;100.45;66.75;;;;;;;;;;4999900;28;20050;-93
2022/01/01 05:13:09;;;;;;;97.10;63.65;;;;;;;;;;4999538;28;20019;-91
2022/01/01 05:15:35;;;;;;;96.55;64.13;;;;;;;;;;4998703;28;20038;-93
2022/01/01 05:18:02;;;;;;;94.20;64.88;;;;;;;;;;4998980;28;20116;-93
2022/01/01 05:20:28;;;;;;;99.47;63.72;;;;;;;;;;4999672;28;20034;-93
2022/01/01 05:22:54;;;;;;;98.88;64.15;;;;;;;;;;4999965;28;20034;-92
2022/01/01 05:25:20;;;;;;;96.15;62.13;;;;;;;;;;4999362;28;20026;-93
2022/01/01 05:27:46;;;;;;;96.15;62.08;;;;;;;;;;4999471;28;20109;-94
2022/01/01 05:30:12;;;;;;;93.22;58.55;;;;;;;;;;4999180;28;20022;-92
2022/01/01 05:32:38;;;;;;;83.95;57.78;;;;;;;;;;4998466;28;20045;-92
2022/01/01 05:35:05;;;;;;;78.28;54.35;;;;;;;;;;4999332;28;20050;-92
2022/01/01 05:37:31;;;;;;;78.15;53.58;;;;;;;;;;5019334;28;20116;-92
2022/01/01 05:39:57;;;;;;;76.07;51.60;;;;;;;;;;5014787;28;20034;-92
2022/01/01 05:45:26;;;;;;;72.18;50.80;;;;;;;;;;4999279;28;20041;-93
2022/01/01 05:47:52;;;;;;;71.78;48.33;;;;;;;;;;4999356;28;20026;-93
2022/01/01 05:50:20;;;;;;;68.90;47.33;;;;;;;;;;4997948;28;20062;-92
2022/01/01 05:52:46;;;;;;;63.80;46.58;;;;;;;;;;4999027;28;20038;-92
2022/01/01 05:55:12;;;;;;;64.53;45.47;;;;;;;;;;4999188;28;20027;-93
2022/01/01 06:00:42;;;;;;;58.47;42.17;;;;;;;;;;4999170;28;20038;-93
2022/01/01 06:03:08;;;;;;;61.72;44.72;;;;;;;;;;4999053;28;20089;-93
2022/01/01 06:05:35;;;;;;;67.80;44.20;;;;;;;;;;4998596;28;20029;-91
2022/01/01 06:08:01;;;;;;;94.70;56.22;;;;;;;;;;4998621;28;20113;-92
2022/01/01 06:14:08;;;;;;;51.95;37.13;;;;;;;;;;4998667;28;20100;-93
2022/01/01 06:16:34;;;;;;;51.80;38.60;;;;;;;;;;4997674;28;20325;-93
2022/01/01 06:19:00;;;;;;;61.33;41.40;;;;;;;;;;4998508;28;20034;-93
2022/01/01 06:21:26;;;;;;;52.55;39.30;;;;;;;;;;4997450;28;20022;-92
2022/01/01 06:23:52;;;;;;;47.05;36.65;;;;;;;;;;4998383;28;20076;-93
2022/01/01 06:26:37;;;;;;;54.33;39.03;;;;;;;;;;4998768;28;20060;-93
2022/01/01 06:29:03;;;;;;;53.75;39.25;;;;;;;;;;4997224;28;20038;-92
2022/01/01 06:31:29;;;;;;;50.88;36.45;;;;;;;;;;4997218;28;20468;-93
2022/01/01 06:33:55;;;;;;;47.30;35.08;;;;;;;;;;4997257;28;20065;-93
2022/01/01 06:36:21;;;;;;;47.28;35.90;;;;;;;;;;4998010;28;20065;-93
2022/01/01 06:38:47;;;;;;;46.15;35.33;;;;;;;;;;4998119;28;20352;-94
2022/01/01 06:41:13;;;;;;;45.42;34.17;;;;;;;;;;4998822;28;20018;-94
2022/01/01 06:43:40;;;;;;;46.83;32.88;;;;;;;;;;4998611;28;20026;-93
2022/01/01 06:46:07;;;;;;;44.78;33.70;;;;;;;;;;4998248;28;20022;-93
2022/01/01 06:48:34;;;;;;;42.22;33.22;;;;;;;;;;4997896;28;20030;-93
2022/01/01 06:51:00;;;;;;;45.80;32.47;;;;;;;;;;4997353;28;20030;-93
2022/01/01 06:53:26;;;;;;;43.00;31.88;;;;;;;;;;4997352;28;20125;-92
2022/01/01 06:58:56;;;;;;;37.75;28.92;;;;;;;;;;4997940;28;20045;-92
2022/01/01 07:01:22;;;;;;;42.33;31.20;;;;;;;;;;4998475;28;20018;-91
2022/01/01 07:03:48;;;;;;;37.63;28.98;;;;;;;;;;4998222;28;20030;-92
2022/01/01 07:06:14;;;;;;;36.47;28.60;;;;;;;;;;4998126;28;20027;-91
2022/01/01 07:08:40;;;;;;;40.08;30.02;;;;;;;;;;4997951;28;20393;-91
2022/01/01 07:14:11;;;;;;;36.55;28.05;;;;;;;;;;4998328;28;20038;-91
2022/01/01 07:16:37;;;;;;;35.28;27.90;;;;;;;;;;4998327;28;20407;-90
2022/01/01 07:19:03;;;;;;;37.75;28.48;;;;;;;;;;4998087;28;20118;-91
2022/01/01 07:21:30;;;;;;;36.92;28.92;;;;;;;;;;4998236;28;20030;-90
2022/01/01 07:23:56;;;;;;;37.08;29.85;;;;;;;;;;4996806;28;20057;-91
2022/01/01 07:29:25;;;;;;;35.15;26.85;;;;;;;;;;4997902;28;20037;-90
2022/01/01 07:31:53;;;;;;;36.20;27.00;;;;;;;;;;4996637;28;20030;-91
2022/01/01 07:34:22;;;;;;;40.08;29.05;;;;;;;;;;4997802;28;20031;-93
2022/01/01 07:36:48;;;;;;;45.70;33.67;;;;;;;;;;4996689;28;20057;-93
2022/01/01 07:39:14;;;;;;;51.08;39.13;;;;;;;;;;4996331;28;20038;-93
2022/01/01 07:44:44;;;;;;;141.80;62.45;;;;;;;;;;4997724;28;20118;-92
2022/01/01 07:47:10;;;;;;;91.97;43.72;;;;;;;;;;4997239;28;20026;-93
2022/01/01 07:49:36;;;;;;;60.40;33.47;;;;;;;;;;4996732;28;20077;-88
2022/01/01 07:52:03;;;;;;;61.75;34.40;;;;;;;;;;4997881;28;20027;-91
2022/01/01 07:54:29;;;;;;;75.43;37.55;;;;;;;;;;4997579;28;20363;-91
2022/01/01 07:56:55;;;;;;;57.85;31.35;;;;;;;;;;4996795;28;20034;-92
2022/01/01 07:59:21;;;;;;;73.10;36.15;;;;;;;;;;4998916;28;20056;-91
2022/01/01 08:01:47;;;;;;;58.15;30.70;;;;;;;;;;5001129;28;20022;-92
2022/01/01 08:04:13;;;;;;;50.25;29.63;;;;;;;;;;5000957;28;20408;-91
2022/01/01 08:06:39;;;;;;;47.60;28.00;;;;;;;;;;5001119;28;20061;-92
2022/01/01 08:09:05;;;;;;;47.83;27.90;;;;;;;;;;5001319;28;20026;-92
2022/01/01 08:11:31;;;;;;;53.53;29.23;;;;;;;;;;4999732;28;20046;-92
2022/01/01 08:13:57;;;;;;;54.78;27.98;;;;;;;;;;5001058;28;20425;-93
2022/01/01 08:16:23;;;;;;;40.28;23.63;;;;;;;;;;4999621;28;20046;-90
2022/01/01 08:18:49;;;;;;;34.20;22.13;;;;;;;;;;4999900;28;20026;-90
2022/01/01 08:21:16;;;;;;;40.95;24.25;;;;;;;;;;4999473;28;20030;-91
2022/01/01 08:23:42;;;;;;;43.90;25.25;;;;;;;;;;5000863;28;20022;-90
2022/01/01 08:29:12;;;;;;;42.25;24.52;;;;;;;;;;4981335;28;20030;-91
2022/01/01 08:31:38;;;;;;;53.00;25.80;;;;;;;;;;4981127;28;20025;-89
2022/01/01 08:34:04;;;;;;;56.92;29.27;;;;;;;;;;4980151;28;20496;-89
2022/01/01 08:36:30;;;;;;;44.15;25.83;;;;;;;;;;4995585;28;20074;-90
2022/01/01 08:38:56;;;;;;;48.10;27.75;;;;;;;;;;5000118;28;20093;-91
2022/01/01 08:44:26;;;;;;;53.92;28.40;;;;;;;;;;5000952;28;20029;-90
2022/01/01 08:46:52;;;;;;;46.83;26.10;;;;;;;;;;5000530;28;20033;-91
2022/01/01 08:49:18;;;;;;;55.42;27.20;;;;;;;;;;4999044;28;20039;-89
2022/01/01 08:51:45;;;;;;;36.33;20.15;;;;;;;;;;4999887;28;20029;-89
2022/01/01 08:54:12;;;;;;;45.47;21.10;;;;;;;;;;5000407;28;20041;-91
2022/01/01 08:56:39;;;;;;;24.48;15.30;;;;;;;;;;4999398;28;20035;-92
2022/01/01 08:59:05;;;;;;;33.25;18.75;;;;;;;;;;4998856;28;20034;-92
2022/01/01 09:01:32;;;;;;;38.38;18.52;;;;;;;;;;4999297;28;20029;-91
2022/01/01 09:03:58;;;;;;;32.78;17.73;;;;;;;;;;4999088;28;20034;-91
2022/01/01 09:06:24;;;;;;;35.97;19.88;;;;;;;;;;5000471;28;20031;-91
2022/01/01 09:08:50;;;;;;;44.75;21.80;;;;;;;;;;5019473;28;20030;-90
2022/01/01 09:11:16;;;;;;;43.08;21.58;;;;;;;;;;4999778;28;20069;-91
2022/01/01 09:13:43;;;;;;;30.85;17.70;;;;;;;;;;4998587;28;20065;-90
2022/01/01 09:16:12;;;;;;;38.60;17.98;;;;;;;;;;4999047;28;20117;-90
2022/01/01 09:18:39;;;;;;;30.20;15.45;;;;;;;;;;4999938;28;20048;-90
2022/01/01 09:21:06;;;;;;;39.72;18.60;;;;;;;;;;4999745;28;20022;-90
2022/01/01 09:23:32;;;;;;;28.55;16.05;;;;;;;;;;4999568;28;20056;-90
2022/01/01 09:26:00;;;;;;;40.45;22.15;;;;;;;;;;4999866;28;20033;-90
2022/01/01 09:28:29;;;;;;;32.55;19.40;;;;;;;;;;4999258;28;20424;-89
2022/01/01 09:30:55;;;;;;;48.95;32.22;;;;;;;;;;4978886;28;20425;-90
2022/01/01 09:33:22;;;;;;;41.58;27.92;;;;;;;;;;4980347;28;20051;-92
2022/01/01 09:35:48;;;;;;;42.53;23.98;;;;;;;;;;4979973;28;20054;-92
2022/01/01 09:38:14;;;;;;;30.58;20.02;;;;;;;;;;4979083;28;20027;-91
2022/01/01 09:40:40;;;;;;;36.13;22.92;;;;;;;;;;4979784;28;20038;-91
2022/01/01 09:43:34;;;;;;;30.13;22.10;;;;;;;;;;4996688;28;20121;-91
2022/01/01 09:46:02;;;;;;;24.58;16.15;;;;;;;;;;4939771;29;20050;-91
2022/01/01 09:48:28;;;;;;;23.80;16.50;;;;;;;;;;4939565;29;20141;-92
2022/01/01 09:50:56;;;;;;;27.58;17.45;;;;;;;;;;4939652;29;20023;-90
2022/01/01 09:53:24;;;;;;;24.77;16.65;;;;;;;;;;4939523;29;20031;-91
2022/01/01 09:55:51;;;;;;;31.48;18.17;;;;;;;;;;4939494;29;20043;-90
2022/01/01 09:58:17;;;;;;;26.38;16.35;;;;;;;;;;4930186;29;20059;-91
2022/01/01 10:00:43;;;;;;;24.75;16.67;;;;;;;;;;4923506;29;20082;-92
2022/01/01 10:03:13;;;;;;;27.75;19.02;;;;;;;;;;4939520;29;20020;-91
2022/01/01 10:05:57;;;;;;;30.63;19.38;;;;;;;;;;4920842;29;20063;-91
2022/01/01 10:08:24;;;;;;;27.52;16.58;;;;;;;;;;4920395;29;20027;-92
2022/01/01 10:10:51;;;;;;;33.63;21.10;;;;;;;;;;4904476;29;20032;-91
2022/01/01 10:13:18;;;;;;;40.35;27.10;;;;;;;;;;4903887;29;20076;-91
2022/01/01 10:15:44;;;;;;;29.42;20.45;;;;;;;;;;4932190;28;20113;-91
2022/01/01 10:18:10;;;;;;;35.13;21.58;;;;;;;;;;4979209;28;20019;-92
2022/01/01 10:20:36;;;;;;;34.72;23.85;;;;;;;;;;4979030;28;20425;-90
2022/01/01 10:23:14;;;;;;;32.35;21.42;;;;;;;;;;4998351;28;20120;-92
2022/01/01 10:34:34;;;;;;;47.78;16.92;;;;;;;;;;4980943;28;20034;-89
2022/01/01 10:37:00;;;;;;;57.78;18.73;;;;;;;;;;4998486;28;20213;-92
2022/01/01 10:39:27;;;;;;;44.38;21.25;;;;;;;;;;4998061;28;20029;-90
2022/01/01 10:41:53;;;;;;;13.80;7.97;;;;;;;;;;4998829;28;20097;-90
2022/01/01 10:44:28;;;;;;;12.15;7.63;;;;;;;;;;4997812;28;20023;-90
2022/01/01 10:46:55;;;;;;;12.05;6.72;;;;;;;;;;4997906;28;20491;-90
2022/01/01 10:49:36;;;;;;;8.45;6.18;;;;;;;;;;4998292;28;20039;-90
2022/01/01 10:52:23;;;;;;;9.48;5.75;;;;;;;;;;4997781;28;20058;-89
2022/01/01 10:54:50;;;;;;;9.32;5.68;;;;;;;;;;4998426;28;20034;-91
2022/01/01 10:57:23;;;;;;;11.27;7.35;;;;;;;;;;4998300;28;20440;-89
2022/01/01 10:59:50;;;;;;;9.30;5.90;;;;;;;;;;4998095;28;20053;-89
2022/01/01 11:02:16;;;;;;;6.63;4.93;;;;;;;;;;4998053;28;20023;-90
2022/01/01 11:04:43;;;;;;;10.93;7.05;;;;;;;;;;4997365;28;20058;-92
2022/01/01 11:07:09;;;;;;;10.63;6.25;;;;;;;;;;4997144;28;20034;-91
2022/01/01 11:09:35;;;;;;;8.82;6.20;;;;;;;;;;4997017;28;20030;-89
2022/01/01 11:21:13;;;;;;;8.65;6.00;;;;;;;;;;4978733;28;20119;-89
2022/01/01 11:23:40;;;;;;;8.95;5.72;;;;;;;;;;4988409;28;20019;-90
2022/01/01 11:26:07;;;;;;;6.53;4.97;;;;;;;;;;4996983;28;20440;-90
2022/01/01 11:28:51;;;;;;;10.02;6.95;;;;;;;;;;4997012;28;20027;-90
2022/01/01 11:31:19;;;;;;;9.75;5.97;;;;;;;;;;4998155;28;20030;-89
2022/01/01 11:33:50;;;;;;;11.20;7.15;;;;;;;;;;5001832;28;20026;-89
2022/01/01 11:36:24;;;;;;;11.07;6.63;;;;;;;;;;5001197;28;20120;-88
2022/01/01 11:38:52;;;;;;;8.23;5.82;;;;;;;;;;5000610;28;20432;-90
2022/01/01 11:41:19;;;;;;;7.55;5.38;;;;;;;;;;5000135;28;20018;-90
2022/01/01 11:44:04;;;;;;;12.60;8.85;;;;;;;;;;5001396;28;20069;-90
2022/01/01 11:46:33;;;;;;;29.17;13.73;;;;;;;;;;5000742;28;20025;-90
2022/01/01 11:49:05;;;;;;;30.88;11.88;;;;;;;;;;5000625;28;20121;-90
2022/01/01 11:51:35;;;;;;;6.78;4.53;;;;;;;;;;5000033;28;20030;-89
2022/01/01 11:54:04;;;;;;;9.25;5.68;;;;;;;;;;5001227;28;20035;-90
2022/01/01 12:02:38;;;;;;;8.88;5.82;;;;;;;;;;5001242;28;20029;-91
2022/01/01 12:05:07;;;;;;;10.15;5.85;;;;;;;;;;4999572;28;20042;-89
2022/01/01 12:07:41;;;;;;;7.15;5.05;;;;;;;;;;5000942;28;20022;-90
2022/01/01 12:10:07;;;;;;;10.00;6.53;;;;;;;;;;4992557;28;20027;-91
2022/01/01 12:12:37;;;;;;;7.63;5.05;;;;;;;;;;4981985;28;20035;-88
2022/01/01 12:15:07;;;;;;;9.27;5.60;;;;;;;;;;4980487;28;20421;-88
2022/01/01 12:17:48;;;;;;;8.43;5.43;;;;;;;;;;4980296;28;20035;-89
2022/01/01 12:20:17;;;;;;;16.90;8.35;;;;;;;;;;5000776;28;20034;-92
2022/01/01 12:22:44;;;;;;;18.88;10.07;;;;;;;;;;4999984;28;20106;-90
2022/01/01 12:25:14;;;;;;;19.33;12.15;;;;;;;;;;4999948;28;20149;-91
2022/01/01 12:27:41;;;;;;;19.75;11.60;;;;;;;;;;5000760;28;20030;-91
2022/01/01 12:30:08;;;;;;;14.88;8.57;;;;;;;;;;5000557;28;20323;-90
2022/01/01 12:32:38;;;;;;;23.02;13.88;;;;;;;;;;5000402;28;20026;-90
2022/01/01 12:35:08;;;;;;;15.93;10.45;;;;;;;;;;5000188;28;20042;-91
2022/01/01 12:37:38;;;;;;;15.25;10.05;;;;;;;;;;4999590;28;20045;-93
2022/01/01 12:40:05;;;;;;;22.55;14.07;;;;;;;;;;5001006;28;20027;-89
2022/01/01 12:42:32;;;;;;;18.40;12.68;;;;;;;;;;4999281;28;20105;-90
2022/01/01 12:45:06;;;;;;;11.77;9.52;;;;;;;;;;4998455;28;20031;-90
2022/01/01 12:47:32;;;;;;;12.13;7.03;;;;;;;;;;5000392;28;20037;-90
2022/01/01 12:49:59;;;;;;;9.38;5.82;;;;;;;;;;5000394;28;20036;-89
2022/01/01 12:52:25;;;;;;;7.05;5.32;;;;;;;;;;5000345;28;20019;-89
2022/01/01 12:54:51;;;;;;;7.78;5.25;;;;;;;;;;5000568;28;20038;-89
2022/01/01 12:57:20;;;;;;;9.18;4.47;;;;;;;;;;4999468;28;20065;-89
2022/01/01 12:59:48;;;;;;;6.22;4.35;;;;;;;;;;4999204;28;20168;-91
2022/01/01 13:02:14;;;;;;;7.70;4.40;;;;;;;;;;4998834;28;20141;-90
2022/01/01 13:04:41;;;;;;;7.78;4.75;;;;;;;;;;5000093;28;20109;-90
2022/01/01 13:07:07;;;;;;;8.18;4.55;;;;;;;;;;5000092;28;20119;-88
2022/01/01 13:09:33;;;;;;;4.68;3.70;;;;;;;;;;4999921;28;20022;-90
2022/01/01 13:15:03;;;;;;;7.40;3.92;;;;;;;;;;4980596;28;20359;-90
2022/01/01 13:17:29;;;;;;;6.43;4.00;;;;;;;;;;4979565;28;20069;-89
2022/01/01 13:19:55;;;;;;;7.13;4.57;;;;;;;;;;4993862;28;20042;-89
2022/01/01 13:22:29;;;;;;;7.88;4.25;;;;;;;;;;4998825;28;20408;-89
2022/01/01 13:24:56;;;;;;;6.78;4.25;;;;;;;;;;4999692;28;20031;-89
2022/01/01 13:27:27;;;;;;;6.35;4.05;;;;;;;;;;4999080;28;20030;-89
2022/01/01 13:29:53;;;;;;;8.95;4.68;;;;;;;;;;4999760;28;20038;-93
2022/01/01 13:32:19;;;;;;;7.60;3.80;;;;;;;;;;4999602;28;20041;-89
2022/01/01 13:34:53;;;;;;;5.50;3.88;;;;;;;;;;4998365;28;20058;-88
2022/01/01 13:37:23;;;;;;;5.38;4.40;;;;;;;;;;4999927;28;20053;-86
2022/01/01 13:39:51;;;;;;;6.60;4.60;;;;;;;;;;4998526;28;20065;-88
2022/01/01 13:42:17;;;;;;;5.35;3.88;;;;;;;;;;4998532;28;20033;-86
2022/01/01 13:44:44;;;;;;;9.15;5.20;;;;;;;;;;4999108;28;20030;-88
2022/01/01 13:47:13;;;;;;;10.32;4.78;;;;;;;;;;4999445;28;20027;-87
2022/01/01 13:49:40;;;;;;;8.20;5.28;;;;;;;;;;4999050;28;20024;-91
2022/01/01 13:52:07;;;;;;;7.93;4.80;;;;;;;;;;4997321;28;20034;-85
2022/01/01 13:54:39;;;;;;;6.65;4.07;;;;;;;;;;4998891;28;20218;-85
2022/01/01 13:57:08;;;;;;;7.80;4.75;;;;;;;;;;4997264;28;20041;-88
2022/01/01 13:59:34;;;;;;;8.80;5.22;;;;;;;;;;4997910;28;20034;-89
2022/01/01 14:02:04;;;;;;;6.53;4.35;;;;;;;;;;4999038;28;20046;-88
2022/01/01 14:04:31;;;;;;;8.68;5.00;;;;;;;;;;5000015;28;20033;-88
2022/01/01 14:07:08;;;;;;;4.55;3.83;;;;;;;;;;4999632;28;20106;-91
2022/01/01 14:09:34;;;;;;;10.35;5.50;;;;;;;;;;4999129;28;20034;-89
2022/01/01 14:12:06;;;;;;;7.85;4.72;;;;;;;;;;4997169;28;20030;-89
2022/01/01 14:14:32;;;;;;;9.77;5.72;;;;;;;;;;4998452;28;20041;-87
2022/01/01 14:16:58;;;;;;;11.70;6.60;;;;;;;;;;4999114;28;20430;-87
2022/01/01 14:19:25;;;;;;;10.25;4.88;;;;;;;;;;4996944;28;20053;-89
2022/01/01 14:21:54;;;;;;;9.50;4.97;;;;;;;;;;5011346;28;20022;-90
2022/01/01 14:24:22;;;;;;;6.97;4.70;;;;;;;;;;5017097;28;20362;-91
2022/01/01 14:26:50;;;;;;;9.40;5.28;;;;;;;;;;5010506;28;20427;-90
2022/01/01 14:29:18;;;;;;;9.40;5.05;;;;;;;;;;5009163;28;20034;-90
2022/01/01 14:31:45;;;;;;;7.63;4.32;;;;;;;;;;5018207;28;20551;-91
2022/01/01 14:34:15;;;;;;;9.50;5.07;;;;;;;;;;5017627;28;20040;-89
2022/01/01 14:36:46;;;;;;;9.15;5.05;;;;;;;;;;5006929;28;21250;-90
2022/01/01 14:39:13;;;;;;;6.20;3.88;;;;;;;;;;5014031;28;20037;-90
2022/01/01 14:41:40;;;;;;;5.18;3.30;;;;;;;;;;5005634;28;20027;-89
2022/01/01 14:44:07;;;;;;;5.50;3.40;;;;;;;;;;5006222;28;20057;-89
2022/01/01 14:46:35;;;;;;;5.15;3.33;;;;;;;;;;4997049;28;20392;-88
2022/01/01 14:49:15;;;;;;;5.68;3.60;;;;;;;;;;5016998;28;20030;-88
2022/01/01 14:51:49;;;;;;;5.85;3.88;;;;;;;;;;5006700;28;20032;-88
2022/01/01 14:54:21;;;;;;;6.15;4.75;;;;;;;;;;5011129;28;20145;-88
2022/01/01 14:56:54;;;;;;;10.30;5.85;;;;;;;;;;5011606;28;20033;-88
2022/01/01 14:59:22;;;;;;;12.95;9.48;;;;;;;;;;5016306;28;20022;-93
2022/01/01 15:01:49;;;;;;;12.82;8.90;;;;;;;;;;4996710;28;20031;-92
2022/01/01 15:04:20;;;;;;;12.13;7.97;;;;;;;;;;4998013;28;20034;-93
2022/01/01 15:06:47;;;;;;;12.05;7.55;;;;;;;;;;5008197;28;20042;-92
2022/01/01 15:09:14;;;;;;;12.13;7.50;;;;;;;;;;5014064;28;20034;-90
2022/01/01 15:11:41;;;;;;;16.33;10.73;;;;;;;;;;5017173;28;20108;-90
2022/01/01 15:14:08;;;;;;;19.25;11.48;;;;;;;;;;5018861;28;20025;-89
2022/01/01 15:16:36;;;;;;;20.63;11.77;;;;;;;;;;5014671;28;20301;-91
2022/01/01 15:19:02;;;;;;;27.25;17.73;;;;;;;;;;5021540;28;20030;-92
2022/01/01 15:21:47;;;;;;;17.70;10.90;;;;;;;;;;5020597;28;20057;-91